sensor_id;sensor_type;location;lat;lon;timestamp;P1;P2;P0
67376;PMS7003;54261;46.086;6.588;2023-05-10T00:03:28;2.00;0.00;0.00
67376;PMS7003;54261;46.086;6.588;2023-05-10T00:08:30;0.67;0.67;0.00
67376;PMS7003;54261;46.086;6.588;2023-05-10T00:13:31;0.00;0.00;0.00
67376;PMS7003;54261;46.086;6.588;2023-05-10T00:18:34;0.00;0.00;0.00
67376;PMS7003;54261;46.086;6.588;2023-05-10T00:23:35;0.00;0.00;0.00
67376;PMS7003;54261;46.086;6.588;2023-05-10T00:28:37;0.00;0.00;0.00
67376;PMS7003;54261;46.086;6.588;2023-05-10T00:33:39;0.00;0.00;0.00
67376;PMS7003;54261;46.086;6.588;2023-05-10T00:38:41;0.00;0.00;0.00
67376;PMS7003;54261;46.086;6.588;2023-05-10T00:43:42;0.00;0.00;0.00
67376;PMS7003;54261;46.086;6.588;2023-05-10T00:48:44;0.00;0.00;0.00
67376;PMS7003;54261;46.086;6.588;2023-05-10T00:53:46;0.00;0.00;0.00
67376;PMS7003;54261;46.086;6.588;2023-05-10T00:58:50;0.00;0.00;0.00
67376;PMS7003;54261;46.086;6.588;2023-05-10T01:03:52;0.00;0.00;0.00
67376;PMS7003;54261;46.086;6.588;2023-05-10T01:08:55;0.00;0.00;0.00
67376;PMS7003;54261;46.086;6.588;2023-05-10T01:13:57;0.00;0.00;0.00
67376;PMS7003;54261;46.086;6.588;2023-05-10T01:19:00;0.00;0.00;0.00
67376;PMS7003;54261;46.086;6.588;2023-05-10T01:34:47;0.00;0.00;0.00
67376;PMS7003;54261;46.086;6.588;2023-05-10T01:40:02;0.00;0.00;0.00
67376;PMS7003;54261;46.086;6.588;2023-05-10T01:45:27;0.00;0.00;0.00
67376;PMS7003;54261;46.086;6.588;2023-05-10T01:50:34;0.00;0.00;0.00
67376;PMS7003;54261;46.086;6.588;2023-05-10T01:55:39;0.00;0.00;0.00
67376;PMS7003;54261;46.086;6.588;2023-05-10T02:00:46;0.00;0.00;0.00
67376;PMS7003;54261;46.086;6.588;2023-05-10T02:05:50;0.00;0.00;0.00
67376;PMS7003;54261;46.086;6.588;2023-05-10T02:10:55;0.00;0.00;0.00
67376;PMS7003;54261;46.086;6.588;2023-05-10T02:15:58;0.00;0.00;0.00
67376;PMS7003;54261;46.086;6.588;2023-05-10T02:21:01;0.00;0.00;0.00
67376;PMS7003;54261;46.086;6.588;2023-05-10T02:26:04;0.00;0.00;0.00
67376;PMS7003;54261;46.086;6.588;2023-05-10T02:31:07;1.00;0.00;0.00
67376;PMS7003;54261;46.086;6.588;2023-05-10T02:36:12;0.00;0.00;0.00
67376;PMS7003;54261;46.086;6.588;2023-05-10T02:41:15;0.00;0.00;0.00
67376;PMS7003;54261;46.086;6.588;2023-05-10T02:46:17;0.00;0.00;0.00
67376;PMS7003;54261;46.086;6.588;2023-05-10T02:51:20;0.00;0.00;0.00
67376;PMS7003;54261;46.086;6.588;2023-05-10T02:56:31;0.33;0.00;0.00
67376;PMS7003;54261;46.086;6.588;2023-05-10T03:01:35;0.00;0.00;0.00
67376;PMS7003;54261;46.086;6.588;2023-05-10T03:06:37;0.00;0.00;0.00
67376;PMS7003;54261;46.086;6.588;2023-05-10T03:11:51;0.00;0.00;0.00
67376;PMS7003;54261;46.086;6.588;2023-05-10T03:22:24;0.00;0.00;0.00
67376;PMS7003;54261;46.086;6.588;2023-05-10T03:27:32;0.00;0.00;0.00
67376;PMS7003;54261;46.086;6.588;2023-05-10T03:32:35;0.00;0.00;0.00
67376;PMS7003;54261;46.086;6.588;2023-05-10T03:37:37;0.00;0.00;0.00
67376;PMS7003;54261;46.086;6.588;2023-05-10T03:42:39;7.33;3.00;1.00
67376;PMS7003;54261;46.086;6.588;2023-05-10T03:47:41;3.00;1.00;1.00
67376;PMS7003;54261;46.086;6.588;2023-05-10T03:52:44;1.33;1.33;1.00
67376;PMS7003;54261;46.086;6.588;2023-05-10T03:57:46;1.00;1.00;1.00
67376;PMS7003;54261;46.086;6.588;2023-05-10T04:02:48;2.00;2.00;1.00
67376;PMS7003;54261;46.086;6.588;2023-05-10T04:07:53;0.00;0.00;0.00
67376;PMS7003;54261;46.086;6.588;2023-05-10T04:12:54;0.00;0.00;0.00
67376;PMS7003;54261;46.086;6.588;2023-05-10T04:17:56;2.00;1.00;0.00
67376;PMS7003;54261;46.086;6.588;2023-05-10T04:22:58;0.00;0.00;0.00
67376;PMS7003;54261;46.086;6.588;2023-05-10T04:28:00;0.00;0.00;0.00
67376;PMS7003;54261;46.086;6.588;2023-05-10T04:33:02;1.00;1.00;0.25
67376;PMS7003;54261;46.086;6.588;2023-05-10T04:38:04;2.00;2.00;1.00
67376;PMS7003;54261;46.086;6.588;2023-05-10T04:43:06;3.00;2.00;1.00
67376;PMS7003;54261;46.086;6.588;2023-05-10T04:48:07;2.00;2.00;1.75
67376;PMS7003;54261;46.086;6.588;2023-05-10T04:53:09;1.25;1.25;1.00
67376;PMS7003;54261;46.086;6.588;2023-05-10T04:58:11;0.00;0.00;0.00
67376;PMS7003;54261;46.086;6.588;2023-05-10T05:03:13;0.00;0.00;0.00
67376;PMS7003;54261;46.086;6.588;2023-05-10T05:08:16;1.25;0.75;0.00
67376;PMS7003;54261;46.086;6.588;2023-05-10T05:13:18;0.00;0.00;0.00
67376;PMS7003;54261;46.086;6.588;2023-05-10T05:18:23;0.50;0.50;0.00
67376;PMS7003;54261;46.086;6.588;2023-05-10T05:23:24;0.00;0.00;0.00
67376;PMS7003;54261;46.086;6.588;2023-05-10T05:28:27;0.00;0.00;0.00
67376;PMS7003;54261;46.086;6.588;2023-05-10T05:33:34;0.00;0.00;0.00
67376;PMS7003;54261;46.086;6.588;2023-05-10T05:38:36;1.00;1.00;0.00
67376;PMS7003;54261;46.086;6.588;2023-05-10T05:43:37;0.25;0.25;0.00
67376;PMS7003;54261;46.086;6.588;2023-05-10T05:48:39;0.67;0.00;0.00
67376;PMS7003;54261;46.086;6.588;2023-05-10T05:53:41;0.33;0.33;0.00
67376;PMS7003;54261;46.086;6.588;2023-05-10T05:58:43;1.00;1.00;0.00
67376;PMS7003;54261;46.086;6.588;2023-05-10T06:03:46;0.00;0.00;0.00
67376;PMS7003;54261;46.086;6.588;2023-05-10T06:08:48;0.00;0.00;0.00
67376;PMS7003;54261;46.086;6.588;2023-05-10T06:13:50;0.00;0.00;0.00
67376;PMS7003;54261;46.086;6.588;2023-05-10T06:18:51;1.00;1.00;1.00
67376;PMS7003;54261;46.086;6.588;2023-05-10T06:23:53;1.00;1.00;1.00
67376;PMS7003;54261;46.086;6.588;2023-05-10T06:28:55;4.00;1.00;1.00
67376;PMS7003;54261;46.086;6.588;2023-05-10T06:33:57;1.00;1.00;1.00
67376;PMS7003;54261;46.086;6.588;2023-05-10T06:38:59;1.67;0.33;0.33
67376;PMS7003;54261;46.086;6.588;2023-05-10T06:44:01;0.00;0.00;0.00
67376;PMS7003;54261;46.086;6.588;2023-05-10T06:49:02;1.67;1.00;1.00
67376;PMS7003;54261;46.086;6.588;2023-05-10T06:54:04;1.00;1.00;0.67
67376;PMS7003;54261;46.086;6.588;2023-05-10T06:59:06;1.00;1.00;1.00
67376;PMS7003;54261;46.086;6.588;2023-05-10T07:04:08;1.00;1.00;0.00
67376;PMS7003;54261;46.086;6.588;2023-05-10T07:09:10;1.00;1.00;1.00
67376;PMS7003;54261;46.086;6.588;2023-05-10T07:14:12;1.00;1.00;0.25
67376;PMS7003;54261;46.086;6.588;2023-05-10T07:19:14;1.00;1.00;0.75
67376;PMS7003;54261;46.086;6.588;2023-05-10T07:24:16;1.00;1.00;1.00
67376;PMS7003;54261;46.086;6.588;2023-05-10T07:29:18;4.00;3.00;2.00
67376;PMS7003;54261;46.086;6.588;2023-05-10T07:34:19;1.50;1.50;1.25
67376;PMS7003;54261;46.086;6.588;2023-05-10T07:39:21;1.25;1.25;1.00
67376;PMS7003;54261;46.086;6.588;2023-05-10T07:44:28;2.00;2.00;2.00
67376;PMS7003;54261;46.086;6.588;2023-05-10T07:49:30;3.00;2.00;1.00
67376;PMS7003;54261;46.086;6.588;2023-05-10T07:54:32;2.00;2.00;1.75
67376;PMS7003;54261;46.086;6.588;2023-05-10T07:59:35;2.00;2.00;1.75
67376;PMS7003;54261;46.086;6.588;2023-05-10T08:04:37;2.25;1.25;1.00
67376;PMS7003;54261;46.086;6.588;2023-05-10T08:09:39;1.00;1.00;1.00
67376;PMS7003;54261;46.086;6.588;2023-05-10T08:14:41;1.67;1.00;1.00
67376;PMS7003;54261;46.086;6.588;2023-05-10T08:19:44;3.00;2.00;2.00
67376;PMS7003;54261;46.086;6.588;2023-05-10T08:24:45;1.00;1.00;1.00
67376;PMS7003;54261;46.086;6.588;2023-05-10T08:29:48;2.00;2.00;1.00
67376;PMS7003;54261;46.086;6.588;2023-05-10T08:34:51;1.33;1.33;1.00
67376;PMS7003;54261;46.086;6.588;2023-05-10T08:39:52;2.00;1.00;1.00
67376;PMS7003;54261;46.086;6.588;2023-05-10T08:44:54;1.00;1.00;1.00
67376;PMS7003;54261;46.086;6.588;2023-05-10T08:49:58;3.00;1.67;1.00
67376;PMS7003;54261;46.086;6.588;2023-05-10T08:55:00;2.00;1.00;1.00
67376;PMS7003;54261;46.086;6.588;2023-05-10T09:00:02;2.00;2.00;1.00
67376;PMS7003;54261;46.086;6.588;2023-05-10T09:05:05;0.00;0.00;0.00
67376;PMS7003;54261;46.086;6.588;2023-05-10T09:10:08;1.67;1.67;1.00
67376;PMS7003;54261;46.086;6.588;2023-05-10T09:15:11;0.67;0.67;0.67
67376;PMS7003;54261;46.086;6.588;2023-05-10T09:20:16;1.00;1.00;0.00
67376;PMS7003;54261;46.086;6.588;2023-05-10T09:25:22;1.00;1.00;1.00
67376;PMS7003;54261;46.086;6.588;2023-05-10T09:30:25;1.00;1.00;1.00
67376;PMS7003;54261;46.086;6.588;2023-05-10T09:35:29;1.33;1.33;1.00
67376;PMS7003;54261;46.086;6.588;2023-05-10T09:40:33;3.00;1.33;1.00
67376;PMS7003;54261;46.086;6.588;2023-05-10T09:45:35;1.00;0.67;0.67
67376;PMS7003;54261;46.086;6.588;2023-05-10T09:50:39;2.00;2.00;1.00
67376;PMS7003;54261;46.086;6.588;2023-05-10T09:55:42;2.00;2.00;1.00
67376;PMS7003;54261;46.086;6.588;2023-05-10T10:00:47;0.67;0.67;0.67
67376;PMS7003;54261;46.086;6.588;2023-05-10T10:05:52;1.00;1.00;1.00
67376;PMS7003;54261;46.086;6.588;2023-05-10T10:10:57;2.00;2.00;1.33
67376;PMS7003;54261;46.086;6.588;2023-05-10T10:15:59;1.33;1.33;1.00
67376;PMS7003;54261;46.086;6.588;2023-05-10T10:21:01;3.00;2.00;1.00
67376;PMS7003;54261;46.086;6.588;2023-05-10T10:26:04;2.00;2.00;1.00
67376;PMS7003;54261;46.086;6.588;2023-05-10T10:31:17;2.67;2.00;0.33
67376;PMS7003;54261;46.086;6.588;2023-05-10T10:36:28;1.33;1.33;1.00
67376;PMS7003;54261;46.086;6.588;2023-05-10T10:41:31;1.00;1.00;1.00
67376;PMS7003;54261;46.086;6.588;2023-05-10T10:46:34;2.00;1.00;0.33
67376;PMS7003;54261;46.086;6.588;2023-05-10T11:02:43;0.00;0.00;0.00
67376;PMS7003;54261;46.086;6.588;2023-05-10T11:07:53;1.00;1.00;1.00
67376;PMS7003;54261;46.086;6.588;2023-05-10T11:13:02;3.00;1.67;1.00
67376;PMS7003;54261;46.086;6.588;2023-05-10T11:23:47;1.00;1.00;1.00
67376;PMS7003;54261;46.086;6.588;2023-05-10T11:28:51;1.00;1.00;0.67
67376;PMS7003;54261;46.086;6.588;2023-05-10T11:33:56;2.00;2.00;1.67
67376;PMS7003;54261;46.086;6.588;2023-05-10T11:39:00;1.33;1.00;1.00
67376;PMS7003;54261;46.086;6.588;2023-05-10T11:44:02;1.00;1.00;1.00
67376;PMS7003;54261;46.086;6.588;2023-05-10T11:49:03;2.00;1.00;1.00
67376;PMS7003;54261;46.086;6.588;2023-05-10T11:54:09;1.33;1.00;1.00
67376;PMS7003;54261;46.086;6.588;2023-05-10T11:59:13;1.67;0.67;0.33
67376;PMS7003;54261;46.086;6.588;2023-05-10T12:04:16;1.67;1.00;0.00
67376;PMS7003;54261;46.086;6.588;2023-05-10T12:09:18;0.00;0.00;0.00
67376;PMS7003;54261;46.086;6.588;2023-05-10T12:14:40;1.00;1.00;1.00
67376;PMS7003;54261;46.086;6.588;2023-05-10T12:19:42;1.00;1.00;0.00
67376;PMS7003;54261;46.086;6.588;2023-05-10T12:24:45;0.00;0.00;0.00
67376;PMS7003;54261;46.086;6.588;2023-05-10T12:29:46;3.00;1.67;1.67
67376;PMS7003;54261;46.086;6.588;2023-05-10T12:34:49;1.00;1.00;1.00
67376;PMS7003;54261;46.086;6.588;2023-05-10T12:39:54;2.00;2.00;1.00
67376;PMS7003;54261;46.086;6.588;2023-05-10T12:44:56;1.00;1.00;1.00
67376;PMS7003;54261;46.086;6.588;2023-05-10T12:50:01;1.00;1.00;1.00
67376;PMS7003;54261;46.086;6.588;2023-05-10T12:55:04;1.67;1.67;1.00
67376;PMS7003;54261;46.086;6.588;2023-05-10T13:00:06;2.00;1.00;1.00
67376;PMS7003;54261;46.086;6.588;2023-05-10T13:05:08;1.00;1.00;0.00
67376;PMS7003;54261;46.086;6.588;2023-05-10T13:10:10;0.33;0.00;0.00
67376;PMS7003;54261;46.086;6.588;2023-05-10T13:15:12;0.67;0.67;0.33
67376;PMS7003;54261;46.086;6.588;2023-05-10T13:20:14;1.00;1.00;1.00
67376;PMS7003;54261;46.086;6.588;2023-05-10T13:25:17;1.67;1.67;1.00
67376;PMS7003;54261;46.086;6.588;2023-05-10T13:30:18;0.00;0.00;0.00
67376;PMS7003;54261;46.086;6.588;2023-05-10T13:35:20;2.00;1.33;1.00
67376;PMS7003;54261;46.086;6.588;2023-05-10T13:40:22;1.00;1.00;0.33
67376;PMS7003;54261;46.086;6.588;2023-05-10T13:45:24;0.00;0.00;0.00
67376;PMS7003;54261;46.086;6.588;2023-05-10T13:50:26;1.00;1.00;0.67
67376;PMS7003;54261;46.086;6.588;2023-05-10T13:55:28;1.00;1.00;1.00
67376;PMS7003;54261;46.086;6.588;2023-05-10T14:00:30;0.67;0.67;0.67
67376;PMS7003;54261;46.086;6.588;2023-05-10T14:05:32;0.67;0.67;0.67
67376;PMS7003;54261;46.086;6.588;2023-05-10T14:10:34;0.67;0.67;0.67
67376;PMS7003;54261;46.086;6.588;2023-05-10T14:15:35;1.00;1.00;1.00
67376;PMS7003;54261;46.086;6.588;2023-05-10T14:20:37;0.00;0.00;0.00
67376;PMS7003;54261;46.086;6.588;2023-05-10T14:25:42;0.00;0.00;0.00
67376;PMS7003;54261;46.086;6.588;2023-05-10T14:30:44;0.33;0.33;0.00
67376;PMS7003;54261;46.086;6.588;2023-05-10T14:35:46;1.67;1.67;0.00
67376;PMS7003;54261;46.086;6.588;2023-05-10T14:40:48;1.00;1.00;0.00
67376;PMS7003;54261;46.086;6.588;2023-05-10T14:45:50;1.00;1.00;0.00
67376;PMS7003;54261;46.086;6.588;2023-05-10T14:50:52;0.00;0.00;0.00
67376;PMS7003;54261;46.086;6.588;2023-05-10T14:55:54;2.00;1.00;1.00
67376;PMS7003;54261;46.086;6.588;2023-05-10T15:00:55;1.00;1.00;1.00
67376;PMS7003;54261;46.086;6.588;2023-05-10T15:05:58;3.00;0.00;0.00
67376;PMS7003;54261;46.086;6.588;2023-05-10T15:11:00;1.00;1.00;0.67
67376;PMS7003;54261;46.086;6.588;2023-05-10T15:16:02;1.00;1.00;1.00
67376;PMS7003;54261;46.086;6.588;2023-05-10T15:21:04;1.00;0.00;0.00
67376;PMS7003;54261;46.086;6.588;2023-05-10T15:26:06;0.00;0.00;0.00
67376;PMS7003;54261;46.086;6.588;2023-05-10T15:31:08;0.33;0.33;0.00
67376;PMS7003;54261;46.086;6.588;2023-05-10T15:36:10;1.00;1.00;0.33
67376;PMS7003;54261;46.086;6.588;2023-05-10T15:41:12;1.00;1.00;0.67
67376;PMS7003;54261;46.086;6.588;2023-05-10T15:46:13;0.33;0.33;0.00
67376;PMS7003;54261;46.086;6.588;2023-05-10T15:51:15;0.00;0.00;0.00
67376;PMS7003;54261;46.086;6.588;2023-05-10T15:56:17;1.00;0.00;0.00
67376;PMS7003;54261;46.086;6.588;2023-05-10T16:01:19;1.00;0.00;0.00
67376;PMS7003;54261;46.086;6.588;2023-05-10T16:06:21;0.00;0.00;0.00
67376;PMS7003;54261;46.086;6.588;2023-05-10T16:11:23;0.00;0.00;0.00
67376;PMS7003;54261;46.086;6.588;2023-05-10T16:16:25;0.00;0.00;0.00
67376;PMS7003;54261;46.086;6.588;2023-05-10T16:21:27;1.00;1.00;0.00
67376;PMS7003;54261;46.086;6.588;2023-05-10T16:26:32;0.00;0.00;0.00
67376;PMS7003;54261;46.086;6.588;2023-05-10T16:31:41;0.33;0.00;0.00
67376;PMS7003;54261;46.086;6.588;2023-05-10T16:36:43;1.00;1.00;0.67
67376;PMS7003;54261;46.086;6.588;2023-05-10T16:41:44;2.00;1.00;1.00
67376;PMS7003;54261;46.086;6.588;2023-05-10T16:46:46;0.00;0.00;0.00
67376;PMS7003;54261;46.086;6.588;2023-05-10T16:51:49;1.00;1.00;0.00
67376;PMS7003;54261;46.086;6.588;2023-05-10T16:56:51;0.67;0.67;0.00
67376;PMS7003;54261;46.086;6.588;2023-05-10T17:01:53;1.00;0.00;0.00
67376;PMS7003;54261;46.086;6.588;2023-05-10T17:06:55;0.33;0.33;0.00
67376;PMS7003;54261;46.086;6.588;2023-05-10T17:11:58;2.33;2.33;1.00
67376;PMS7003;54261;46.086;6.588;2023-05-10T17:17:00;1.33;1.33;1.00
67376;PMS7003;54261;46.086;6.588;2023-05-10T17:22:02;0.00;0.00;0.00
67376;PMS7003;54261;46.086;6.588;2023-05-10T17:27:04;0.00;0.00;0.00
67376;PMS7003;54261;46.086;6.588;2023-05-10T17:32:06;0.00;0.00;0.00
67376;PMS7003;54261;46.086;6.588;2023-05-10T17:37:09;1.00;1.00;0.00
67376;PMS7003;54261;46.086;6.588;2023-05-10T17:42:11;1.00;0.00;0.00
67376;PMS7003;54261;46.086;6.588;2023-05-10T17:47:14;0.00;0.00;0.00
67376;PMS7003;54261;46.086;6.588;2023-05-10T17:52:16;0.00;0.00;0.00
67376;PMS7003;54261;46.086;6.588;2023-05-10T17:57:18;0.00;0.00;0.00
67376;PMS7003;54261;46.086;6.588;2023-05-10T18:02:21;0.00;0.00;0.00
67376;PMS7003;54261;46.086;6.588;2023-05-10T18:07:23;0.00;0.00;0.00
67376;PMS7003;54261;46.086;6.588;2023-05-10T18:12:26;0.00;0.00;0.00
67376;PMS7003;54261;46.086;6.588;2023-05-10T18:17:28;0.00;0.00;0.00
67376;PMS7003;54261;46.086;6.588;2023-05-10T18:22:30;0.00;0.00;0.00
67376;PMS7003;54261;46.086;6.588;2023-05-10T18:27:31;0.00;0.00;0.00
67376;PMS7003;54261;46.086;6.588;2023-05-10T18:32:33;0.00;0.00;0.00
67376;PMS7003;54261;46.086;6.588;2023-05-10T18:37:35;0.00;0.00;0.00
67376;PMS7003;54261;46.086;6.588;2023-05-10T18:42:39;0.00;0.00;0.00
67376;PMS7003;54261;46.086;6.588;2023-05-10T18:47:47;0.00;0.00;0.00
67376;PMS7003;54261;46.086;6.588;2023-05-10T18:52:49;1.00;1.00;1.00
67376;PMS7003;54261;46.086;6.588;2023-05-10T18:57:51;0.00;0.00;0.00
67376;PMS7003;54261;46.086;6.588;2023-05-10T19:02:53;1.00;0.00;0.00
67376;PMS7003;54261;46.086;6.588;2023-05-10T19:07:55;0.00;0.00;0.00
67376;PMS7003;54261;46.086;6.588;2023-05-10T19:12:57;0.00;0.00;0.00
67376;PMS7003;54261;46.086;6.588;2023-05-10T19:17:59;0.33;0.00;0.00
67376;PMS7003;54261;46.086;6.588;2023-05-10T19:23:01;0.00;0.00;0.00
67376;PMS7003;54261;46.086;6.588;2023-05-10T19:28:11;1.00;0.00;0.00
67376;PMS7003;54261;46.086;6.588;2023-05-10T19:33:13;0.00;0.00;0.00
67376;PMS7003;54261;46.086;6.588;2023-05-10T19:38:15;0.00;0.00;0.00
67376;PMS7003;54261;46.086;6.588;2023-05-10T19:43:17;1.00;0.00;0.00
67376;PMS7003;54261;46.086;6.588;2023-05-10T19:48:19;1.00;0.00;0.00
67376;PMS7003;54261;46.086;6.588;2023-05-10T19:53:21;1.33;0.00;0.00
67376;PMS7003;54261;46.086;6.588;2023-05-10T19:58:23;0.00;0.00;0.00
67376;PMS7003;54261;46.086;6.588;2023-05-10T20:03:25;0.00;0.00;0.00
67376;PMS7003;54261;46.086;6.588;2023-05-10T20:08:28;0.33;0.00;0.00
67376;PMS7003;54261;46.086;6.588;2023-05-10T20:13:30;0.00;0.00;0.00
67376;PMS7003;54261;46.086;6.588;2023-05-10T20:18:32;0.00;0.00;0.00
67376;PMS7003;54261;46.086;6.588;2023-05-10T20:23:34;1.00;1.00;0.00
67376;PMS7003;54261;46.086;6.588;2023-05-10T20:28:36;0.33;0.00;0.00
67376;PMS7003;54261;46.086;6.588;2023-05-10T20:33:38;0.00;0.00;0.00
67376;PMS7003;54261;46.086;6.588;2023-05-10T20:38:40;0.00;0.00;0.00
67376;PMS7003;54261;46.086;6.588;2023-05-10T20:43:42;0.00;0.00;0.00
67376;PMS7003;54261;46.086;6.588;2023-05-10T20:48:43;0.33;0.33;0.00
67376;PMS7003;54261;46.086;6.588;2023-05-10T20:53:45;1.00;0.00;0.00
67376;PMS7003;54261;46.086;6.588;2023-05-10T20:58:47;0.00;0.00;0.00
67376;PMS7003;54261;46.086;6.588;2023-05-10T21:03:49;1.00;1.00;0.33
67376;PMS7003;54261;46.086;6.588;2023-05-10T21:08:51;2.00;1.00;1.00
67376;PMS7003;54261;46.086;6.588;2023-05-10T21:13:53;0.00;0.00;0.00
67376;PMS7003;54261;46.086;6.588;2023-05-10T21:18:54;1.00;1.00;0.67
67376;PMS7003;54261;46.086;6.588;2023-05-10T21:23:56;2.00;2.00;1.00
67376;PMS7003;54261;46.086;6.588;2023-05-10T21:28:58;1.33;1.33;1.00
67376;PMS7003;54261;46.086;6.588;2023-05-10T21:34:00;0.00;0.00;0.00
67376;PMS7003;54261;46.086;6.588;2023-05-10T21:39:02;1.00;0.00;0.00
67376;PMS7003;54261;46.086;6.588;2023-05-10T21:44:04;1.00;1.00;0.00
67376;PMS7003;54261;46.086;6.588;2023-05-10T21:49:06;1.00;1.00;1.00
67376;PMS7003;54261;46.086;6.588;2023-05-10T21:54:08;0.00;0.00;0.00
67376;PMS7003;54261;46.086;6.588;2023-05-10T21:59:10;0.00;0.00;0.00
67376;PMS7003;54261;46.086;6.588;2023-05-10T22:04:12;0.33;0.33;0.00
67376;PMS7003;54261;46.086;6.588;2023-05-10T22:09:14;1.00;1.00;0.00
67376;PMS7003;54261;46.086;6.588;2023-05-10T22:14:16;0.00;0.00;0.00
67376;PMS7003;54261;46.086;6.588;2023-05-10T22:19:18;1.33;0.33;0.33
67376;PMS7003;54261;46.086;6.588;2023-05-10T22:24:20;0.33;0.33;0.00
67376;PMS7003;54261;46.086;6.588;2023-05-10T22:29:22;0.00;0.00;0.00
67376;PMS7003;54261;46.086;6.588;2023-05-10T22:34:24;1.00;1.00;0.33
67376;PMS7003;54261;46.086;6.588;2023-05-10T22:39:26;1.00;1.00;1.00
67376;PMS7003;54261;46.086;6.588;2023-05-10T22:44:27;1.00;1.00;1.00
67376;PMS7003;54261;46.086;6.588;2023-05-10T22:49:29;0.67;0.67;0.67
67376;PMS7003;54261;46.086;6.588;2023-05-10T22:54:32;1.33;1.00;1.00
67376;PMS7003;54261;46.086;6.588;2023-05-10T22:59:36;1.00;1.00;1.00
67376;PMS7003;54261;46.086;6.588;2023-05-10T23:04:38;0.00;0.00;0.00
67376;PMS7003;54261;46.086;6.588;2023-05-10T23:09:40;1.00;1.00;1.00
67376;PMS7003;54261;46.086;6.588;2023-05-10T23:14:42;2.00;1.00;0.00
67376;PMS7003;54261;46.086;6.588;2023-05-10T23:19:46;0.00;0.00;0.00
67376;PMS7003;54261;46.086;6.588;2023-05-10T23:24:48;1.00;0.33;0.00
67376;PMS7003;54261;46.086;6.588;2023-05-10T23:29:50;0.67;0.67;0.00
67376;PMS7003;54261;46.086;6.588;2023-05-10T23:34:55;0.00;0.00;0.00
67376;PMS7003;54261;46.086;6.588;2023-05-10T23:39:57;0.00;0.00;0.00
67376;PMS7003;54261;46.086;6.588;2023-05-10T23:44:59;0.00;0.00;0.00
67376;PMS7003;54261;46.086;6.588;2023-05-10T23:50:01;0.33;0.33;0.00
67376;PMS7003;54261;46.086;6.588;2023-05-10T23:55:03;1.00;1.00;0.00
